createdAt,value
2018-06-25T00:01:51.257Z,12.87
2018-06-25T00:04:18.871Z,10.33
2018-06-25T00:06:46.593Z,13.10
2018-06-25T00:09:14.181Z,11.07
2018-06-25T00:11:41.693Z,14.00
2018-06-25T00:14:09.253Z,18.80
2018-06-25T00:16:36.801Z,16.43
2018-06-25T00:19:04.542Z,13.90
2018-06-25T00:21:32.140Z,12.53
2018-06-25T00:23:59.715Z,9.27
2018-06-25T00:26:27.296Z,13.47
2018-06-25T00:28:55.055Z,13.30
2018-06-25T00:31:22.587Z,18.70
2018-06-25T00:33:50.114Z,13.53
2018-06-25T00:36:17.679Z,16.20
2018-06-25T00:38:45.216Z,18.53
2018-06-25T00:41:12.780Z,15.33
2018-06-25T00:43:40.316Z,11.83
2018-06-25T00:46:07.864Z,15.43
2018-06-25T00:48:35.452Z,12.07
2018-06-25T00:51:03.028Z,14.50
2018-06-25T00:53:30.564Z,11.67
2018-06-25T00:55:58.116Z,11.33
2018-06-25T00:58:25.638Z,15.40
2018-06-25T01:00:53.134Z,15.20
2018-06-25T01:03:20.717Z,11.83
2018-06-25T01:05:48.238Z,11.37
2018-06-25T01:08:16.392Z,13.87
2018-06-25T01:10:43.917Z,12.10
2018-06-25T01:13:11.449Z,13.10
2018-06-25T01:15:39.014Z,20.33
2018-06-25T01:18:06.519Z,14.27
2018-06-25T01:20:34.320Z,13.70
2018-06-25T01:23:01.892Z,11.50
2018-06-25T01:25:29.442Z,12.20
2018-06-25T01:27:56.967Z,14.80
2018-06-25T01:30:24.486Z,15.43
2018-06-25T01:32:52.079Z,14.10
2018-06-25T01:35:19.623Z,17.57
2018-06-25T01:37:47.176Z,13.60
2018-06-25T01:40:14.725Z,14.10
2018-06-25T01:42:42.265Z,16.40
2018-06-25T01:45:09.831Z,12.77
2018-06-25T01:47:37.348Z,17.00
2018-06-25T01:50:04.922Z,15.63
2018-06-25T01:52:32.637Z,21.73
2018-06-25T01:55:00.160Z,16.93
2018-06-25T01:57:27.679Z,16.73
2018-06-25T01:59:55.213Z,14.77
2018-06-25T02:02:22.747Z,16.67
2018-06-25T02:04:50.307Z,17.53
2018-06-25T02:07:17.962Z,19.07
2018-06-25T02:09:45.486Z,20.17
2018-06-25T02:12:13.167Z,17.03
2018-06-25T02:14:40.681Z,14.70
2018-06-25T02:17:08.207Z,17.53
2018-06-25T02:19:35.717Z,15.00
2018-06-25T02:22:03.261Z,18.30
2018-06-25T02:24:30.850Z,15.23
2018-06-25T02:26:58.409Z,14.77
2018-06-25T02:29:25.965Z,19.07
2018-06-25T02:31:53.493Z,15.00
2018-06-25T02:34:21.045Z,13.57
2018-06-25T02:36:48.559Z,16.03
2018-06-25T02:39:16.148Z,11.43
2018-06-25T02:41:43.719Z,12.90
2018-06-25T02:44:11.292Z,13.47
2018-06-25T02:46:39.018Z,17.30
2018-06-25T02:49:06.577Z,12.57
2018-06-25T02:51:34.133Z,13.90
2018-06-25T02:54:01.677Z,13.83
2018-06-25T02:56:29.221Z,16.73
2018-06-25T02:58:56.775Z,11.10
2018-06-25T03:01:24.305Z,14.70
2018-06-25T03:03:51.839Z,12.87
2018-06-25T03:06:19.425Z,17.97
2018-06-25T03:08:47.055Z,15.97
2018-06-25T03:11:14.582Z,15.80
2018-06-25T03:13:42.099Z,20.20
2018-06-25T03:16:09.633Z,16.63
2018-06-25T03:18:37.257Z,17.70
2018-06-25T03:21:04.799Z,17.60
2018-06-25T03:23:32.599Z,24.73
2018-06-25T03:26:01.494Z,22.50
2018-06-25T03:28:29.028Z,26.03
2018-06-25T03:30:56.586Z,23.30
2018-06-25T03:33:24.140Z,22.43
2018-06-25T03:35:51.652Z,18.90
2018-06-25T03:38:19.249Z,18.50
2018-06-25T03:40:46.819Z,19.10
2018-06-25T03:43:14.456Z,24.83
2018-06-25T03:45:41.938Z,28.00
2018-06-25T03:48:09.484Z,26.80
2018-06-25T03:50:37.036Z,20.73
2018-06-25T03:53:04.914Z,22.43
2018-06-25T03:55:32.503Z,18.73
2018-06-25T03:58:00.042Z,20.63
2018-06-25T04:00:27.567Z,20.60
2018-06-25T04:02:55.172Z,29.60
2018-06-25T04:05:22.662Z,20.27
2018-06-25T04:07:50.326Z,18.13
2018-06-25T04:10:17.866Z,18.53
2018-06-25T04:12:45.376Z,16.30
2018-06-25T04:15:12.932Z,14.37
2018-06-25T04:17:40.470Z,17.40
2018-06-25T04:20:08.610Z,13.63
2018-06-25T04:22:36.221Z,14.30
2018-06-25T04:25:03.850Z,13.30
2018-06-25T04:27:31.399Z,8.43
2018-06-25T04:30:00.114Z,8.37
2018-06-25T04:32:27.838Z,8.03
2018-06-25T04:34:55.558Z,10.53
2018-06-25T04:37:24.075Z,6.93
2018-06-25T04:39:51.869Z,5.80
2018-06-25T04:42:19.400Z,9.57
2018-06-25T04:44:46.917Z,15.93
2018-06-25T04:47:14.473Z,10.30
2018-06-25T04:49:41.993Z,9.57
2018-06-25T04:52:09.577Z,7.13
2018-06-25T04:54:37.099Z,8.40
2018-06-25T04:57:04.665Z,7.13
2018-06-25T04:59:32.261Z,10.93
2018-06-25T05:01:59.817Z,6.17
2018-06-25T05:04:27.983Z,7.43
2018-06-25T05:06:55.585Z,7.77
2018-06-25T05:09:23.114Z,9.53
2018-06-25T05:11:50.664Z,7.10
2018-06-25T05:14:18.238Z,7.10
2018-06-25T05:16:45.789Z,7.10
2018-06-25T05:19:13.318Z,6.43
2018-06-25T05:21:40.853Z,12.50
2018-06-25T05:24:08.426Z,9.73
2018-06-25T05:26:35.963Z,7.87
2018-06-25T05:29:03.620Z,9.03
2018-06-25T05:31:31.348Z,7.20
2018-06-25T05:33:59.002Z,8.30
2018-06-25T05:36:26.575Z,8.90
2018-06-25T05:38:54.198Z,9.23
2018-06-25T05:41:21.748Z,11.50
2018-06-25T05:43:49.322Z,10.37
2018-06-25T05:46:16.914Z,8.00
2018-06-25T05:48:44.575Z,13.20
2018-06-25T05:51:12.159Z,14.83
2018-06-25T05:53:39.692Z,10.80
2018-06-25T05:56:07.400Z,11.90
2018-06-25T05:58:34.973Z,13.63
2018-06-25T06:01:02.640Z,10.83
2018-06-25T06:03:30.205Z,7.17
2018-06-25T06:05:57.869Z,10.17
2018-06-25T06:08:25.425Z,8.60
2018-06-25T06:10:52.963Z,10.27
2018-06-25T06:13:20.486Z,9.50
2018-06-25T06:15:48.056Z,9.40
2018-06-25T06:18:15.603Z,6.63
2018-06-25T06:20:43.190Z,12.10
2018-06-25T06:23:10.776Z,8.50
2018-06-25T06:25:38.348Z,9.37
2018-06-25T06:28:05.921Z,16.83
2018-06-25T06:30:33.460Z,7.60
2018-06-25T06:33:01.206Z,8.33
2018-06-25T06:35:28.925Z,7.87
2018-06-25T06:37:56.469Z,9.80
2018-06-25T06:40:24.018Z,10.50
2018-06-25T06:42:51.534Z,13.03
2018-06-25T06:45:19.152Z,7.20
2018-06-25T06:47:46.705Z,14.20
2018-06-25T06:50:14.218Z,16.83
2018-06-25T06:52:41.758Z,7.47
2018-06-25T06:55:09.281Z,9.93
2018-06-25T06:57:36.905Z,9.70
2018-06-25T07:00:04.829Z,12.67
2018-06-25T07:02:32.411Z,5.37
2018-06-25T07:05:00.015Z,10.63
2018-06-25T07:07:27.603Z,8.83
2018-06-25T07:09:55.208Z,10.70
2018-06-25T07:12:22.778Z,10.43
2018-06-25T07:14:50.324Z,9.63
2018-06-25T07:17:17.927Z,7.30
2018-06-25T07:19:45.463Z,6.53
2018-06-25T07:22:13.032Z,7.47
2018-06-25T07:24:40.596Z,5.77
2018-06-25T07:27:08.143Z,4.80
2018-06-25T07:29:35.688Z,6.60
2018-06-25T07:32:03.287Z,6.27
2018-06-25T07:34:30.873Z,10.80
2018-06-25T07:36:58.495Z,5.60
2018-06-25T07:39:26.053Z,7.77
2018-06-25T07:41:53.627Z,6.10
2018-06-25T07:44:21.193Z,5.93
2018-06-25T07:46:48.735Z,5.70
2018-06-25T07:49:16.269Z,4.40
2018-06-25T07:51:43.843Z,6.20
2018-06-25T07:54:11.378Z,5.27
2018-06-25T07:56:38.947Z,5.07
2018-06-25T07:59:06.492Z,6.43
2018-06-25T08:01:34.067Z,5.67
2018-06-25T08:04:04.005Z,3.70
2018-06-25T08:06:31.533Z,4.07
2018-06-25T08:08:59.123Z,5.07
2018-06-25T08:11:26.718Z,4.90
2018-06-25T08:13:54.340Z,5.53
2018-06-25T08:16:21.918Z,20.73
2018-06-25T08:18:49.496Z,4.33
2018-06-25T08:21:17.058Z,84.53
2018-06-25T08:23:44.587Z,128.37
2018-06-25T08:26:12.200Z,105.40
2018-06-25T08:28:39.784Z,200.67
2018-06-25T08:31:07.362Z,61.90
2018-06-25T08:33:34.964Z,141.20
2018-06-25T08:36:02.550Z,101.57
2018-06-25T08:38:30.104Z,14.37
2018-06-25T08:40:57.708Z,43.43
2018-06-25T08:43:25.343Z,21.43
2018-06-25T08:45:52.954Z,13.47
2018-06-25T08:48:20.492Z,4.20
2018-06-25T08:50:48.082Z,17.83
2018-06-25T08:53:15.635Z,14.03
2018-06-25T08:55:43.239Z,4.77
2018-06-25T08:58:10.774Z,3.13
2018-06-25T09:00:38.345Z,3.47
2018-06-25T09:03:06.015Z,12.73
2018-06-25T09:05:33.584Z,18.50
2018-06-25T09:08:01.112Z,9.40
2018-06-25T09:10:28.694Z,23.00
2018-06-25T09:12:56.250Z,14.27
2018-06-25T09:15:23.928Z,4.47
2018-06-25T09:17:51.415Z,5.87
2018-06-25T09:20:18.969Z,7.10
2018-06-25T09:22:46.532Z,8.60
2018-06-25T09:25:14.056Z,6.53
2018-06-25T09:27:46.511Z,11.10
2018-06-25T09:30:13.985Z,5.30
2018-06-25T09:32:41.550Z,7.00
2018-06-25T09:35:09.248Z,5.63
2018-06-25T09:37:36.797Z,20.93
2018-06-25T09:40:04.681Z,7.03
2018-06-25T09:42:32.201Z,8.13
2018-06-25T09:44:59.829Z,11.40
2018-06-25T09:47:27.410Z,12.57
2018-06-25T09:49:54.951Z,4.10
2018-06-25T09:52:22.508Z,9.63
2018-06-25T09:54:50.054Z,5.03
2018-06-25T09:57:17.613Z,10.13
2018-06-25T09:59:45.145Z,5.83
2018-06-25T10:02:12.729Z,5.50
2018-06-25T10:04:40.328Z,6.60
2018-06-25T10:07:07.881Z,4.00
2018-06-25T10:09:35.439Z,5.97
2018-06-25T10:12:03.001Z,5.77
2018-06-25T10:14:30.520Z,4.50
2018-06-25T10:16:58.087Z,4.93
2018-06-25T10:19:25.652Z,5.07
2018-06-25T10:21:53.207Z,5.57
2018-06-25T10:24:20.801Z,8.03
2018-06-25T10:26:48.465Z,3.97
2018-06-25T10:29:16.022Z,5.00
2018-06-25T10:31:43.642Z,5.13
2018-06-25T10:34:11.189Z,5.50
2018-06-25T10:36:38.740Z,4.57
2018-06-25T10:39:08.074Z,5.20
2018-06-25T10:41:35.774Z,5.90
2018-06-25T10:44:03.684Z,6.80
2018-06-25T10:46:31.216Z,6.87
2018-06-25T10:48:58.786Z,8.70
2018-06-25T10:51:26.340Z,7.67
2018-06-25T10:53:53.926Z,4.77
2018-06-25T10:56:21.462Z,4.80
2018-06-25T10:58:48.956Z,5.53
2018-06-25T11:01:16.498Z,7.00
2018-06-25T11:03:44.088Z,6.77
2018-06-25T11:06:11.651Z,5.87
2018-06-25T11:08:40.062Z,8.40
2018-06-25T11:11:07.724Z,4.33
2018-06-25T11:13:35.335Z,11.40
2018-06-25T11:16:02.958Z,5.13
2018-06-25T11:18:30.535Z,7.80
2018-06-25T11:20:58.149Z,3.97
2018-06-25T11:23:25.694Z,7.50
2018-06-25T11:25:53.244Z,3.80
2018-06-25T11:28:20.900Z,6.70
2018-06-25T11:30:48.420Z,4.00
2018-06-25T11:33:15.917Z,4.00
2018-06-25T11:35:43.462Z,3.80
2018-06-25T11:38:10.950Z,5.00
2018-06-25T11:40:38.526Z,3.97
2018-06-25T11:43:06.066Z,4.07
2018-06-25T11:45:33.642Z,7.20
2018-06-25T11:48:01.216Z,5.80
2018-06-25T11:50:28.747Z,4.03
2018-06-25T11:52:56.332Z,4.67
2018-06-25T11:55:23.892Z,6.07
2018-06-25T11:57:51.411Z,4.10
2018-06-25T12:00:18.975Z,3.10
2018-06-25T12:02:46.624Z,4.20
2018-06-25T12:05:14.153Z,3.20
2018-06-25T12:07:41.695Z,5.27
2018-06-25T12:10:09.269Z,12.43
2018-06-25T12:12:36.849Z,4.10
2018-06-25T12:15:04.529Z,4.70
2018-06-25T12:17:32.238Z,5.20
2018-06-25T12:19:59.802Z,4.93
2018-06-25T12:22:27.324Z,11.27
2018-06-25T12:24:54.910Z,4.50
2018-06-25T12:27:22.477Z,4.00
2018-06-25T12:29:50.041Z,11.97
2018-06-25T12:32:17.585Z,9.00
2018-06-25T12:34:45.159Z,9.70
2018-06-25T12:37:12.710Z,7.20
2018-06-25T12:39:40.242Z,3.67
2018-06-25T12:42:07.843Z,4.20
2018-06-25T12:44:35.376Z,5.13
2018-06-25T12:47:02.967Z,3.77
2018-06-25T12:49:30.530Z,7.23
2018-06-25T12:51:58.107Z,3.03
2018-06-25T12:54:25.744Z,12.10
2018-06-25T12:56:53.326Z,3.80
2018-06-25T12:59:20.888Z,4.57
2018-06-25T13:01:48.490Z,9.30
2018-06-25T13:04:16.149Z,8.67
2018-06-25T13:06:43.740Z,4.60
2018-06-25T13:09:12.384Z,4.83
2018-06-25T13:11:39.990Z,8.30
2018-06-25T13:14:07.897Z,11.87
2018-06-25T13:16:36.028Z,4.37
2018-06-25T13:19:03.984Z,5.70
2018-06-25T13:21:31.523Z,4.33
2018-06-25T13:23:59.216Z,5.87
2018-06-25T13:26:26.749Z,5.23
2018-06-25T13:28:54.556Z,6.50
2018-06-25T13:31:22.130Z,5.20
2018-06-25T13:33:49.684Z,7.30
2018-06-25T13:36:17.807Z,6.60
2018-06-25T13:38:45.370Z,8.67
2018-06-25T13:41:12.946Z,5.57
2018-06-25T13:43:40.539Z,5.33
2018-06-25T13:46:08.347Z,6.63
2018-06-25T13:48:36.061Z,6.27
2018-06-25T13:51:03.701Z,5.40
2018-06-25T13:53:31.283Z,5.73
2018-06-25T13:55:58.923Z,6.00
2018-06-25T13:58:26.495Z,5.33
2018-06-25T14:00:54.050Z,6.70
2018-06-25T14:03:21.661Z,7.50
2018-06-25T14:05:49.733Z,6.40
2018-06-25T14:08:17.350Z,5.03
2018-06-25T14:10:44.927Z,7.93
2018-06-25T14:13:12.525Z,6.17
2018-06-25T14:15:40.099Z,6.40
2018-06-25T14:18:07.721Z,6.50
2018-06-25T14:20:35.418Z,7.23
2018-06-25T14:23:03.015Z,5.37
2018-06-25T14:25:35.143Z,6.13
2018-06-25T14:28:08.460Z,5.90
2018-06-25T14:30:41.653Z,4.37
2018-06-25T14:33:09.237Z,6.47
2018-06-25T14:35:36.812Z,3.70
2018-06-25T14:38:04.424Z,3.93
2018-06-25T14:40:32.053Z,3.20
2018-06-25T14:42:59.655Z,4.83
2018-06-25T14:45:27.250Z,10.80
2018-06-25T14:47:54.862Z,3.97
2018-06-25T14:50:22.430Z,8.80
2018-06-25T14:52:50.041Z,4.00
2018-06-25T14:55:17.664Z,6.93
2018-06-25T14:57:45.245Z,3.80
2018-06-25T15:00:17.377Z,5.27
2018-06-25T15:02:45.035Z,9.80
2018-06-25T15:05:12.673Z,6.20
2018-06-25T15:07:40.187Z,6.00
2018-06-25T15:10:07.768Z,7.17
2018-06-25T15:12:35.445Z,6.20
2018-06-25T15:15:03.090Z,3.80
2018-06-25T15:17:30.701Z,3.70
2018-06-25T15:20:00.197Z,3.17
2018-06-25T15:22:28.145Z,4.70
2018-06-25T15:24:55.751Z,3.50
2018-06-25T15:27:23.366Z,4.40
2018-06-25T15:29:50.979Z,5.53
2018-06-25T15:32:18.550Z,8.10
2018-06-25T15:34:46.113Z,8.20
2018-06-25T15:37:13.766Z,6.20
2018-06-25T15:39:41.336Z,4.83
2018-06-25T15:42:08.963Z,4.93
2018-06-25T15:44:36.541Z,3.80
2018-06-25T15:47:04.176Z,6.47
2018-06-25T15:49:31.811Z,5.30
2018-06-25T15:51:59.389Z,6.83
2018-06-25T15:54:27.013Z,4.40
2018-06-25T15:56:54.615Z,6.50
2018-06-25T15:59:22.173Z,4.60
2018-06-25T16:01:49.776Z,4.07
2018-06-25T16:04:17.385Z,5.60
2018-06-25T16:06:45.046Z,4.13
2018-06-25T16:09:12.565Z,4.40
2018-06-25T16:11:40.198Z,4.80
2018-06-25T16:14:07.821Z,4.77
2018-06-25T16:16:35.387Z,3.60
2018-06-25T16:19:02.991Z,4.50
2018-06-25T16:21:30.542Z,3.87
2018-06-25T16:23:58.152Z,4.60
2018-06-25T16:26:25.693Z,3.70
2018-06-25T16:28:53.318Z,4.97
2018-06-25T16:31:20.909Z,5.77
2018-06-25T16:33:48.519Z,6.23
2018-06-25T16:36:16.128Z,4.47
2018-06-25T16:38:43.739Z,4.60
2018-06-25T16:41:11.343Z,5.23
2018-06-25T16:43:38.884Z,9.40
2018-06-25T16:46:06.543Z,5.33
2018-06-25T16:48:34.087Z,4.47
2018-06-25T16:51:01.745Z,9.47
2018-06-25T16:53:29.413Z,7.40
2018-06-25T16:55:56.993Z,5.30
2018-06-25T16:58:24.639Z,12.60
2018-06-25T17:00:52.283Z,4.73
2018-06-25T17:03:19.865Z,6.10
2018-06-25T17:05:47.513Z,8.47
2018-06-25T17:08:15.081Z,7.33
2018-06-25T17:10:42.698Z,10.00
2018-06-25T17:13:10.279Z,7.43
2018-06-25T17:15:37.891Z,6.77
2018-06-25T17:18:05.590Z,14.93
2018-06-25T17:20:33.174Z,6.60
2018-06-25T17:23:00.704Z,11.67
2018-06-25T17:25:28.268Z,5.60
2018-06-25T17:27:55.811Z,5.90
2018-06-25T17:30:23.420Z,6.97
2018-06-25T17:32:50.994Z,6.73
2018-06-25T17:35:18.623Z,17.60
2018-06-25T17:37:46.250Z,7.83
2018-06-25T17:40:13.803Z,6.67
2018-06-25T17:42:41.383Z,6.43
2018-06-25T17:45:08.978Z,8.90
2018-06-25T17:47:36.564Z,7.70
2018-06-25T17:50:04.322Z,8.10
2018-06-25T17:52:31.906Z,9.83
2018-06-25T17:54:59.546Z,6.30
2018-06-25T17:57:27.167Z,5.93
2018-06-25T17:59:54.827Z,6.13
2018-06-25T18:02:22.480Z,5.43
2018-06-25T18:04:50.301Z,7.50
2018-06-25T18:07:18.028Z,7.97
2018-06-25T18:09:45.730Z,8.50
2018-06-25T18:12:13.412Z,5.80
2018-06-25T18:14:41.039Z,9.80
2018-06-25T18:17:08.721Z,6.30
2018-06-25T18:19:37.340Z,5.10
2018-06-25T18:22:05.098Z,5.23
2018-06-25T18:24:32.763Z,5.03
2018-06-25T18:27:00.402Z,8.43
2018-06-25T18:29:28.052Z,7.70
2018-06-25T18:31:55.761Z,8.00
2018-06-25T18:34:23.364Z,7.27
2018-06-25T18:36:51.124Z,7.70
2018-06-25T18:39:19.952Z,5.53
2018-06-25T18:41:47.658Z,9.87
2018-06-25T18:44:15.452Z,6.40
2018-06-25T18:46:44.535Z,7.13
2018-06-25T18:49:12.245Z,6.87
2018-06-25T18:51:39.866Z,6.47
2018-06-25T18:54:07.578Z,5.83
2018-06-25T18:56:35.346Z,9.33
2018-06-25T18:59:03.242Z,5.57
2018-06-25T19:01:30.963Z,8.37
2018-06-25T19:03:58.641Z,9.10
2018-06-25T19:06:26.431Z,5.83
2018-06-25T19:08:54.145Z,6.13
2018-06-25T19:11:21.818Z,7.77
2018-06-25T19:13:49.532Z,8.37
2018-06-25T19:16:17.899Z,8.90
2018-06-25T19:18:45.826Z,6.30
2018-06-25T19:21:13.520Z,6.23
2018-06-25T19:23:41.273Z,5.40
2018-06-25T19:26:08.953Z,5.60
2018-06-25T19:28:36.704Z,8.33
2018-06-25T19:31:04.385Z,6.57
2018-06-25T19:33:32.080Z,9.60
2018-06-25T19:35:59.699Z,8.50
2018-06-25T19:38:27.404Z,6.80
2018-06-25T19:40:55.075Z,9.00
2018-06-25T19:43:22.767Z,6.13
2018-06-25T19:45:50.373Z,7.93
2018-06-25T19:48:18.065Z,6.53
2018-06-25T19:50:45.702Z,9.70
2018-06-25T19:53:13.365Z,6.50
2018-06-25T19:55:41.009Z,12.20
2018-06-25T19:58:08.660Z,5.53
2018-06-25T20:00:36.282Z,5.70
2018-06-25T20:03:03.884Z,9.37
2018-06-25T20:05:31.520Z,9.60
2018-06-25T20:07:59.143Z,7.30
2018-06-25T20:10:26.784Z,8.63
2018-06-25T20:12:54.454Z,7.20
2018-06-25T20:15:22.218Z,13.67
2018-06-25T20:17:49.821Z,8.27
2018-06-25T20:20:17.503Z,11.53
2018-06-25T20:22:45.107Z,16.80
2018-06-25T20:25:12.751Z,7.80
2018-06-25T20:27:40.371Z,11.50
2018-06-25T20:30:08.451Z,11.43
2018-06-25T20:32:36.466Z,7.43
2018-06-25T20:35:04.818Z,8.83
2018-06-25T20:37:32.366Z,12.83
2018-06-25T20:39:59.913Z,9.97
2018-06-25T20:42:27.504Z,8.30
2018-06-25T20:44:55.085Z,7.90
2018-06-25T20:47:22.735Z,7.60
2018-06-25T20:49:50.335Z,8.70
2018-06-25T20:52:17.889Z,9.13
2018-06-25T20:54:45.443Z,10.20
2018-06-25T20:57:12.997Z,9.50
2018-06-25T20:59:40.609Z,12.23
2018-06-25T21:02:08.219Z,8.03
2018-06-25T21:04:35.817Z,8.80
2018-06-25T21:07:03.475Z,7.73
2018-06-25T21:09:31.058Z,10.70
2018-06-25T21:11:58.654Z,7.20
2018-06-25T21:14:26.257Z,9.80
2018-06-25T21:16:53.883Z,8.00
2018-06-25T21:19:21.402Z,12.50
2018-06-25T21:21:48.971Z,7.60
2018-06-25T21:24:16.527Z,8.37
2018-06-25T21:26:44.094Z,9.20
2018-06-25T21:29:11.664Z,7.63
2018-06-25T21:31:39.246Z,7.47
2018-06-25T21:34:06.854Z,6.33
2018-06-25T21:36:34.486Z,10.10
2018-06-25T21:39:02.076Z,6.93
2018-06-25T21:41:29.782Z,10.33
2018-06-25T21:43:57.376Z,8.10
2018-06-25T21:46:25.063Z,10.63
2018-06-25T21:48:52.578Z,8.13
2018-06-25T21:51:20.201Z,7.50
2018-06-25T21:53:47.754Z,5.80
2018-06-25T21:56:15.300Z,12.47
2018-06-25T21:58:42.880Z,6.40
2018-06-25T22:01:10.474Z,5.83
2018-06-25T22:03:38.020Z,12.23
2018-06-25T22:06:05.874Z,7.30
2018-06-25T22:08:33.402Z,9.97
2018-06-25T22:11:00.948Z,110.07
2018-06-25T22:13:28.605Z,21.03
2018-06-25T22:15:56.155Z,8.17
2018-06-25T22:18:23.895Z,8.73
2018-06-25T22:20:51.488Z,5.60
2018-06-25T22:23:20.639Z,7.53
2018-06-25T22:25:48.182Z,6.97
2018-06-25T22:28:15.748Z,4.10
2018-06-25T22:30:43.318Z,6.10
2018-06-25T22:33:10.883Z,5.77
2018-06-25T22:35:38.440Z,4.73
2018-06-25T22:38:05.994Z,9.03
2018-06-25T22:40:33.512Z,4.93
2018-06-25T22:43:01.049Z,5.63
2018-06-25T22:45:28.624Z,5.30
2018-06-25T22:47:56.177Z,4.80
2018-06-25T22:50:23.713Z,5.73
2018-06-25T22:52:51.243Z,7.47
2018-06-25T22:55:18.799Z,5.93
2018-06-25T22:57:46.331Z,4.90
2018-06-25T23:00:13.897Z,5.67
2018-06-25T23:02:41.470Z,7.00
2018-06-25T23:05:09.122Z,8.83
2018-06-25T23:07:36.663Z,4.80
2018-06-25T23:10:04.281Z,3.90
2018-06-25T23:12:31.795Z,5.37
2018-06-25T23:14:59.379Z,5.67
2018-06-25T23:17:26.920Z,4.73
2018-06-25T23:19:54.522Z,7.50
2018-06-25T23:22:22.109Z,5.10
2018-06-25T23:24:49.657Z,6.20
2018-06-25T23:27:17.193Z,8.93
2018-06-25T23:29:44.789Z,4.63
2018-06-25T23:32:13.165Z,4.33
2018-06-25T23:34:40.709Z,5.53
2018-06-25T23:37:08.252Z,4.53
2018-06-25T23:39:35.801Z,12.97
2018-06-25T23:42:03.383Z,4.00
2018-06-25T23:44:30.928Z,3.93
2018-06-25T23:46:58.525Z,4.17
2018-06-25T23:49:26.079Z,3.60
2018-06-25T23:51:53.619Z,5.53
2018-06-25T23:54:21.165Z,4.00
2018-06-25T23:56:48.716Z,4.17
2018-06-25T23:59:16.271Z,9.10
